createdAt,value
2022-10-21T00:01:05.011Z,101633.81
2022-10-21T00:03:32.839Z,101622.53
2022-10-21T00:06:02.474Z,101624.94
2022-10-21T00:08:30.150Z,101633.41
2022-10-21T00:11:00.330Z,101641.72
2022-10-21T00:13:30.027Z,101642.69
2022-10-21T00:16:02.041Z,101635.22
2022-10-21T00:18:31.452Z,101639.91
2022-10-21T00:20:59.627Z,101642.16
2022-10-21T00:23:27.518Z,101639.47
2022-10-21T00:25:59.232Z,101645.25
2022-10-21T00:28:27.699Z,101647.50
2022-10-21T00:30:57.936Z,101654.97
2022-10-21T00:33:28.012Z,101647.94
2022-10-21T00:35:59.245Z,101663.00
2022-10-21T00:38:26.851Z,101657.09
2022-10-21T00:40:55.437Z,101671.19
2022-10-21T00:43:23.921Z,101662.59
2022-10-21T00:45:57.133Z,101673.72
2022-10-21T00:48:34.561Z,101673.72
2022-10-21T00:51:04.400Z,101684.72
2022-10-21T00:53:34.281Z,101676.56
2022-10-21T00:56:09.858Z,101690.78
2022-10-21T00:58:40.150Z,101686.81
2022-10-21T01:01:08.824Z,101686.41
2022-10-21T01:03:36.850Z,101693.59
2022-10-21T01:06:09.338Z,101705.03
2022-10-21T01:08:37.940Z,101703.03
2022-10-21T01:11:12.327Z,101700.91
2022-10-21T01:14:07.116Z,101706.69
2022-10-21T01:16:53.901Z,101721.50
2022-10-21T01:20:02.026Z,101723.06
2022-10-21T01:22:35.842Z,101730.66
2022-10-21T01:25:41.845Z,101731.50
2022-10-21T01:28:34.829Z,101729.50
2022-10-21T01:31:13.126Z,101733.34
2022-10-21T01:33:54.276Z,101737.84
2022-10-21T01:36:43.697Z,101744.03
2022-10-21T01:39:16.906Z,101746.28
2022-10-21T01:41:53.090Z,101757.13
2022-10-21T01:44:26.360Z,101759.78
2022-10-21T01:47:01.255Z,101762.94
2022-10-21T01:49:36.032Z,101768.50
2022-10-21T01:52:05.404Z,101773.66
2022-10-21T01:54:43.852Z,101782.06
2022-10-21T01:57:16.168Z,101782.63
2022-10-21T01:59:46.747Z,101793.22
2022-10-21T02:02:16.701Z,101788.84
2022-10-21T02:04:47.307Z,101791.06
2022-10-21T02:07:15.279Z,101795.03
2022-10-21T02:09:43.769Z,101802.09
2022-10-21T02:12:12.742Z,101810.50
2022-10-21T02:14:45.378Z,101809.34
2022-10-21T02:17:18.873Z,101818.53
2022-10-21T02:19:46.758Z,101821.00
2022-10-21T02:22:20.141Z,101829.47
2022-10-21T02:25:11.206Z,101840.59
2022-10-21T02:27:39.710Z,101831.59
2022-10-21T02:30:08.845Z,101840.75
2022-10-21T02:32:57.268Z,101838.34
2022-10-21T02:36:03.589Z,101845.44
2022-10-21T02:38:45.271Z,101843.47
2022-10-21T02:41:18.190Z,101848.81
2022-10-21T02:43:53.234Z,101838.72
2022-10-21T02:46:21.430Z,101852.22
2022-10-21T02:48:49.881Z,101844.00
2022-10-21T02:51:18.015Z,101850.81
2022-10-21T02:53:45.776Z,101849.31
2022-10-21T02:56:14.363Z,101847.16
2022-10-21T02:58:42.369Z,101862.97
2022-10-21T03:01:09.952Z,101861.81
2022-10-21T03:03:38.609Z,101866.03
2022-10-21T03:06:06.720Z,101855.75
2022-10-21T03:08:35.170Z,101870.28
2022-10-21T03:11:02.840Z,101866.03
2022-10-21T03:13:32.783Z,101865.19
2022-10-21T03:16:00.438Z,101876.47
2022-10-21T03:18:28.009Z,101875.63
2022-10-21T03:20:55.778Z,101875.63
2022-10-21T03:23:23.828Z,101880.56
2022-10-21T03:25:51.528Z,101874.84
2022-10-21T03:28:19.081Z,101878.22
2022-10-21T03:30:46.708Z,101887.97
2022-10-21T03:33:14.274Z,101888.56
2022-10-21T03:35:42.661Z,101892.91
2022-10-21T03:38:10.379Z,101889.75
2022-10-21T03:40:37.933Z,101886.09
2022-10-21T03:43:06.987Z,101888.31
2022-10-21T03:45:35.455Z,101891.69
2022-10-21T03:48:03.057Z,101898.38
2022-10-21T03:50:31.081Z,101897.56
2022-10-21T03:52:59.944Z,101895.28
2022-10-21T03:55:28.064Z,101900.28
2022-10-21T03:57:55.902Z,101908.53
2022-10-21T04:00:25.189Z,101921.69
2022-10-21T04:02:54.843Z,101919.75
2022-10-21T04:05:22.525Z,101916.88
2022-10-21T04:07:53.129Z,101926.00
2022-10-21T04:10:21.507Z,101930.81
2022-10-21T04:12:49.327Z,101939.69
2022-10-21T04:15:18.989Z,101933.47
2022-10-21T04:17:47.280Z,101932.44
2022-10-21T04:20:15.448Z,101944.09
2022-10-21T04:22:43.197Z,101937.41
2022-10-21T04:25:10.865Z,101943.38
2022-10-21T04:27:39.166Z,101952.13
2022-10-21T04:30:07.652Z,101952.31
2022-10-21T04:32:35.776Z,101954.31
2022-10-21T04:35:03.827Z,101960.09
2022-10-21T04:37:31.470Z,101957.78
2022-10-21T04:39:58.938Z,101959.38
2022-10-21T04:44:54.455Z,101966.94
2022-10-21T04:47:23.676Z,101969.13
2022-10-21T04:49:51.501Z,101974.72
2022-10-21T04:52:19.023Z,101975.41
2022-10-21T04:54:47.632Z,101985.53
2022-10-21T04:57:15.257Z,101991.22
2022-10-21T04:59:42.758Z,102001.66
2022-10-21T05:02:10.292Z,102001.66
2022-10-21T05:04:38.061Z,102003.56
2022-10-21T05:07:08.355Z,102016.94
2022-10-21T05:09:36.204Z,102019.50
2022-10-21T05:12:04.196Z,102024.94
2022-10-21T05:14:31.795Z,102025.50
2022-10-21T05:16:59.327Z,102026.88
2022-10-21T05:19:30.978Z,102028.91
2022-10-21T05:22:00.226Z,102034.63
2022-10-21T05:24:28.121Z,102036.56
2022-10-21T05:26:55.651Z,102041.19
2022-10-21T05:29:23.204Z,102049.28
2022-10-21T05:31:51.156Z,102048.19
2022-10-21T05:34:19.567Z,102053.06
2022-10-21T05:36:49.029Z,102056.81
2022-10-21T05:39:16.593Z,102046.19
2022-10-21T05:41:47.770Z,102048.50
2022-10-21T05:44:16.011Z,102048.31
2022-10-21T05:46:44.152Z,102061.69
2022-10-21T05:49:12.992Z,102062.91
2022-10-21T05:51:40.757Z,102057.03
2022-10-21T05:54:08.287Z,102066.63
2022-10-21T05:56:36.746Z,102059.00
2022-10-21T05:59:07.840Z,102066.19
2022-10-21T06:01:39.765Z,102068.09
2022-10-21T06:04:08.045Z,102079.81
2022-10-21T06:06:35.655Z,102085.31
2022-10-21T06:09:04.558Z,102079.44
2022-10-21T06:11:32.522Z,102086.53
2022-10-21T06:14:00.774Z,102093.16
2022-10-21T06:16:35.590Z,102093.22
2022-10-21T06:19:04.160Z,102099.97
2022-10-21T06:21:32.752Z,102094.47
2022-10-21T06:24:00.180Z,102103.38
2022-10-21T06:26:29.310Z,102095.72
2022-10-21T06:28:58.544Z,102098.31
2022-10-21T06:31:27.047Z,102104.41
2022-10-21T06:33:54.689Z,102099.03
2022-10-21T06:36:22.350Z,102104.63
2022-10-21T06:38:50.261Z,102100.78
2022-10-21T06:41:19.131Z,102104.91
2022-10-21T06:43:46.744Z,102112.03
2022-10-21T06:46:15.875Z,102114.31
2022-10-21T06:48:43.958Z,102115.44
2022-10-21T06:51:18.924Z,102118.56
2022-10-21T06:53:52.348Z,102134.41
2022-10-21T06:56:20.843Z,102131.09
2022-10-21T06:58:50.073Z,102137.63
2022-10-21T07:01:41.122Z,102140.22
2022-10-21T07:04:16.445Z,102133.78
2022-10-21T07:06:44.242Z,102143.84
2022-10-21T07:09:12.816Z,102137.50
2022-10-21T07:11:40.689Z,102146.44
2022-10-21T07:14:08.692Z,102148.28
2022-10-21T07:16:37.817Z,102156.22
2022-10-21T07:19:08.910Z,102155.63
2022-10-21T07:21:37.444Z,102155.69
2022-10-21T07:24:06.559Z,102157.13
2022-10-21T07:26:35.532Z,102158.97
2022-10-21T07:29:05.136Z,102165.91
2022-10-21T07:31:37.233Z,102150.41
2022-10-21T07:34:09.083Z,102149.81
2022-10-21T07:36:40.938Z,102152.41
2022-10-21T07:39:12.882Z,102150.13
2022-10-21T07:41:46.247Z,102159.72
2022-10-21T07:44:14.925Z,102153.38
2022-10-21T07:46:44.400Z,102155.50
2022-10-21T07:49:13.270Z,102153.19
2022-10-21T07:51:42.148Z,102154.88
2022-10-21T07:54:09.708Z,102156.16
2022-10-21T07:56:44.594Z,102148.75
2022-10-21T07:59:13.446Z,102151.16
2022-10-21T08:01:45.008Z,102146.56
2022-10-21T08:04:17.216Z,102150.94
2022-10-21T08:06:47.045Z,102157.75
2022-10-21T08:09:16.346Z,102157.03
2022-10-21T08:11:44.310Z,102167.94
2022-10-21T08:14:14.013Z,102165.31
2022-10-21T08:16:41.928Z,102172.72
2022-10-21T08:19:16.667Z,102184.28
2022-10-21T08:21:44.687Z,102185.13
2022-10-21T08:24:12.568Z,102196.88
2022-10-21T08:26:40.603Z,102193.94
2022-10-21T08:29:08.836Z,102187.97
2022-10-21T08:31:37.452Z,102196.59
2022-10-21T08:34:05.061Z,102193.19
2022-10-21T08:36:32.595Z,102201.69
2022-10-21T08:39:00.601Z,102198.31
2022-10-21T08:41:31.808Z,102208.22
2022-10-21T08:44:21.530Z,102207.25
2022-10-21T08:46:59.861Z,102207.97
2022-10-21T08:50:07.603Z,102208.38
2022-10-21T08:52:42.579Z,102214.75
2022-10-21T08:55:28.828Z,102219.72
2022-10-21T08:57:57.047Z,102210.50
2022-10-21T09:00:29.388Z,102215.72
2022-10-21T09:03:15.940Z,102215.03
2022-10-21T09:05:56.492Z,102215.47
2022-10-21T09:08:52.589Z,102225.94
2022-10-21T09:11:34.455Z,102209.78
2022-10-21T09:14:20.702Z,102209.19
2022-10-21T09:17:26.369Z,102200.97
2022-10-21T09:20:12.807Z,102202.38
2022-10-21T09:23:14.711Z,102206.56
2022-10-21T09:26:06.793Z,102208.78
2022-10-21T09:28:35.704Z,102202.25
2022-10-21T09:31:21.511Z,102203.38
2022-10-21T09:33:56.690Z,102206.84
2022-10-21T09:36:31.375Z,102204.09
2022-10-21T09:39:10.904Z,102205.06
2022-10-21T09:41:44.894Z,102205.53
2022-10-21T09:44:22.584Z,102202.25
2022-10-21T09:46:52.593Z,102191.44
2022-10-21T09:50:06.511Z,102188.19
2022-10-21T09:52:23.577Z,102190.31
2022-10-21T09:54:53.621Z,102195.47
2022-10-21T09:57:36.962Z,102200.88
2022-10-21T10:00:08.317Z,102201.59
2022-10-21T10:02:49.088Z,102199.66
2022-10-21T10:05:37.180Z,102203.88
2022-10-21T10:08:35.495Z,102205.91
2022-10-21T10:11:09.507Z,102210.03
2022-10-21T10:13:41.059Z,102203.22
2022-10-21T10:16:14.100Z,102197.44
2022-10-21T10:18:42.972Z,102207.03
2022-10-21T10:21:13.968Z,102203.50
2022-10-21T10:23:49.683Z,102198.72
2022-10-21T10:26:21.274Z,102201.69
2022-10-21T10:28:52.273Z,102202.66
2022-10-21T10:31:33.915Z,102205.63
2022-10-21T10:34:07.024Z,102209.72
2022-10-21T10:36:38.825Z,102209.44
2022-10-21T10:39:22.598Z,102211.66
2022-10-21T10:41:52.758Z,102211.28
2022-10-21T10:44:38.155Z,102217.34
2022-10-21T10:47:09.426Z,102214.25
2022-10-21T10:49:41.592Z,102223.44
2022-10-21T10:52:13.246Z,102215.13
2022-10-21T10:54:44.042Z,102221.03
2022-10-21T10:57:34.211Z,102220.28
2022-10-21T11:00:17.871Z,102216.94
2022-10-21T11:03:00.928Z,102224.03
2022-10-21T11:05:46.998Z,102212.19
2022-10-21T11:08:31.998Z,102215.91
2022-10-21T11:11:11.416Z,102216.38
2022-10-21T11:13:42.227Z,102215.28
2022-10-21T11:16:11.628Z,102215.84
2022-10-21T11:18:58.624Z,102208.34
2022-10-21T11:21:52.466Z,102208.31
2022-10-21T11:24:45.698Z,102210.56
2022-10-21T11:27:44.068Z,102212.56
2022-10-21T11:30:14.075Z,102214.81
2022-10-21T11:33:40.018Z,102208.88
2022-10-21T11:36:25.045Z,102212.56
2022-10-21T11:39:26.519Z,102202.06
2022-10-21T11:42:12.619Z,102212.56
2022-10-21T11:45:00.376Z,102219.34
2022-10-21T11:47:43.661Z,102214.56
2022-10-21T11:50:54.065Z,102215.88
2022-10-21T11:53:55.962Z,102213.47
2022-10-21T11:56:47.346Z,102216.31
2022-10-21T11:59:21.245Z,102222.53
2022-10-21T12:02:41.404Z,102226.50
2022-10-21T12:05:16.406Z,102221.66
2022-10-21T12:08:27.980Z,102235.53
2022-10-21T12:11:13.273Z,102227.31
2022-10-21T12:13:52.675Z,102234.25
2022-10-21T12:16:26.084Z,102232.28
2022-10-21T12:19:14.246Z,102236.38
2022-10-21T12:21:45.793Z,102233.25
2022-10-21T12:24:34.637Z,102238.06
2022-10-21T12:27:17.428Z,102233.69
2022-10-21T12:30:13.379Z,102233.28
2022-10-21T12:32:42.579Z,102232.16
2022-10-21T12:35:16.419Z,102236.41
2022-10-21T12:37:53.995Z,102228.75
2022-10-21T12:40:28.596Z,102232.72
2022-10-21T12:43:02.546Z,102232.69
2022-10-21T12:45:35.596Z,102238.25
2022-10-21T12:48:30.548Z,102236.53
2022-10-21T12:51:01.838Z,102243.78
2022-10-21T12:54:06.580Z,102241.50
2022-10-21T12:56:43.109Z,102237.81
2022-10-21T12:59:34.305Z,102244.34
2022-10-21T13:02:04.864Z,102243.50
2022-10-21T13:04:32.502Z,102235.00
2022-10-21T13:07:26.606Z,102240.06
2022-10-21T13:09:55.079Z,102239.09
2022-10-21T13:12:23.660Z,102246.88
2022-10-21T13:14:58.715Z,102243.78
2022-10-21T13:17:31.378Z,102238.09
2022-10-21T13:20:20.633Z,102245.88
2022-10-21T13:23:03.269Z,102242.78
2022-10-21T13:25:36.451Z,102246.66
2022-10-21T13:28:06.606Z,102232.81
2022-10-21T13:30:37.708Z,102227.28
2022-10-21T13:33:15.180Z,102233.50
2022-10-21T13:35:50.466Z,102226.28
2022-10-21T13:38:36.935Z,102234.03
2022-10-21T13:41:18.497Z,102240.91
2022-10-21T13:43:55.726Z,102240.19
2022-10-21T13:46:43.836Z,102234.47
2022-10-21T13:49:34.138Z,102226.84
2022-10-21T13:52:01.642Z,102225.38
2022-10-21T13:54:35.140Z,102226.91
2022-10-21T13:57:08.155Z,102232.19
2022-10-21T13:59:35.874Z,102226.47
2022-10-21T14:02:07.179Z,102228.81
2022-10-21T14:04:40.535Z,102228.59
2022-10-21T14:07:18.181Z,102229.03
2022-10-21T14:09:55.345Z,102234.25
2022-10-21T14:12:32.709Z,102232.00
2022-10-21T14:15:23.263Z,102239.19
2022-10-21T14:17:58.562Z,102240.63
2022-10-21T14:20:36.145Z,102230.47
2022-10-21T14:23:15.985Z,102231.75
2022-10-21T14:25:44.090Z,102220.41
2022-10-21T14:28:14.146Z,102224.66
2022-10-21T14:30:42.927Z,102229.34
2022-10-21T14:33:18.154Z,102238.38
2022-10-21T14:36:15.097Z,102234.97
2022-10-21T14:38:52.009Z,102233.13
2022-10-21T14:41:27.139Z,102243.66
2022-10-21T14:43:58.564Z,102234.41
2022-10-21T14:46:26.279Z,102243.84
2022-10-21T14:49:04.123Z,102239.56
2022-10-21T14:51:38.010Z,102244.19
2022-10-21T14:54:07.622Z,102236.09
2022-10-21T14:56:42.964Z,102232.31
2022-10-21T14:59:25.513Z,102239.03
2022-10-21T15:01:53.529Z,102249.47
2022-10-21T15:04:50.713Z,102250.50
2022-10-21T15:07:31.799Z,102243.97
2022-10-21T15:10:14.563Z,102253.91
2022-10-21T15:12:52.950Z,102254.88
2022-10-21T15:15:54.171Z,102264.78
2022-10-21T15:18:27.166Z,102269.94
2022-10-21T15:21:05.420Z,102269.22
2022-10-21T15:23:37.115Z,102268.72
2022-10-21T15:26:15.090Z,102275.28
2022-10-21T15:28:43.554Z,102276.19
2022-10-21T15:31:17.664Z,102287.28
2022-10-21T15:33:45.349Z,102283.38
2022-10-21T15:36:13.340Z,102279.53
2022-10-21T15:38:47.842Z,102275.75
2022-10-21T15:41:23.633Z,102280.25
2022-10-21T15:44:27.906Z,102282.47
2022-10-21T15:46:58.496Z,102295.59
2022-10-21T15:49:38.773Z,102304.59
2022-10-21T15:52:06.647Z,102312.06
2022-10-21T15:54:34.674Z,102317.28
2022-10-21T15:57:11.906Z,102325.66
2022-10-21T15:59:41.979Z,102329.44
2022-10-21T16:02:16.349Z,102337.19
2022-10-21T16:04:45.981Z,102327.97
2022-10-21T16:07:22.701Z,102328.72
2022-10-21T16:09:53.226Z,102329.41
2022-10-21T16:12:21.994Z,102324.28
2022-10-21T16:14:50.018Z,102331.00
2022-10-21T16:17:18.787Z,102327.59
2022-10-21T16:19:46.648Z,102337.66
2022-10-21T16:22:21.271Z,102338.84
2022-10-21T16:24:52.621Z,102337.53
2022-10-21T16:27:30.935Z,102336.78
2022-10-21T16:30:25.952Z,102338.59
2022-10-21T16:32:55.742Z,102333.59
2022-10-21T16:35:24.642Z,102335.66
2022-10-21T16:37:57.576Z,102336.66
2022-10-21T16:40:29.289Z,102331.88
2022-10-21T16:42:57.138Z,102330.41
2022-10-21T16:45:29.769Z,102328.09
2022-10-21T16:48:00.512Z,102326.13
2022-10-21T16:50:40.544Z,102335.38
2022-10-21T16:53:14.035Z,102338.38
2022-10-21T16:55:44.399Z,102337.09
2022-10-21T16:58:12.833Z,102343.84
2022-10-21T17:00:42.257Z,102344.88
2022-10-21T17:03:21.148Z,102348.41
2022-10-21T17:05:52.922Z,102342.09
2022-10-21T17:08:20.878Z,102346.44
2022-10-21T17:10:48.997Z,102348.16
2022-10-21T17:13:16.783Z,102348.00
2022-10-21T17:15:45.167Z,102350.94
2022-10-21T17:18:15.697Z,102353.31
2022-10-21T17:20:46.139Z,102351.22
2022-10-21T17:23:14.691Z,102348.75
2022-10-21T17:25:45.068Z,102346.75
2022-10-21T17:28:12.723Z,102351.75
2022-10-21T17:30:41.890Z,102341.19
2022-10-21T17:33:14.121Z,102347.94
2022-10-21T17:35:42.384Z,102343.69
2022-10-21T17:38:10.254Z,102349.81
2022-10-21T17:40:38.042Z,102353.66
2022-10-21T17:43:05.992Z,102357.94
2022-10-21T17:45:34.304Z,102356.44
2022-10-21T17:48:03.113Z,102355.06
2022-10-21T17:50:33.047Z,102363.91
2022-10-21T17:53:00.926Z,102363.28
2022-10-21T17:55:28.656Z,102365.88
2022-10-21T17:57:57.266Z,102371.00
2022-10-21T18:00:24.926Z,102375.03
2022-10-21T18:02:52.803Z,102374.09
2022-10-21T18:05:20.750Z,102373.38
2022-10-21T18:07:49.163Z,102384.25
2022-10-21T18:10:18.148Z,102377.00
2022-10-21T18:12:47.140Z,102378.47
2022-10-21T18:15:17.789Z,102379.97
2022-10-21T18:17:45.378Z,102376.88
2022-10-21T18:20:14.117Z,102378.81
2022-10-21T18:22:42.325Z,102381.59
2022-10-21T18:25:14.293Z,102388.28
2022-10-21T18:30:18.091Z,102387.13
2022-10-21T18:32:47.114Z,102393.22
2022-10-21T18:35:16.158Z,102397.81
2022-10-21T18:37:44.732Z,102398.00
2022-10-21T18:40:12.874Z,102399.19
2022-10-21T18:42:40.662Z,102395.13
2022-10-21T18:45:10.042Z,102392.13
2022-10-21T18:47:38.778Z,102400.59
2022-10-21T18:50:10.424Z,102397.25
2022-10-21T18:52:39.195Z,102397.47
2022-10-21T18:55:07.877Z,102394.91
2022-10-21T18:57:39.980Z,102404.22
2022-10-21T19:00:09.560Z,102403.47
2022-10-21T19:02:40.602Z,102413.06
2022-10-21T19:05:11.995Z,102411.94
2022-10-21T19:07:39.861Z,102417.81
2022-10-21T19:10:08.193Z,102421.31
2022-10-21T19:12:37.173Z,102424.75
2022-10-21T19:15:08.544Z,102419.81
2022-10-21T19:17:39.899Z,102423.91
2022-10-21T19:20:09.741Z,102419.06
2022-10-21T19:22:37.566Z,102425.41
2022-10-21T19:25:06.776Z,102431.78
2022-10-21T19:27:35.180Z,102424.94
2022-10-21T19:30:03.203Z,102427.25
2022-10-21T19:32:31.225Z,102433.25
2022-10-21T19:34:59.392Z,102433.03
2022-10-21T19:37:27.096Z,102432.06
2022-10-21T19:39:55.279Z,102436.44
2022-10-21T19:42:23.850Z,102427.50
2022-10-21T19:44:52.266Z,102425.88
2022-10-21T19:47:20.044Z,102429.50
2022-10-21T19:49:50.664Z,102423.88
2022-10-21T19:52:21.289Z,102427.34
2022-10-21T19:54:53.066Z,102422.25
2022-10-21T19:57:23.545Z,102427.66
2022-10-21T19:59:51.231Z,102425.09
2022-10-21T20:02:20.241Z,102427.56
2022-10-21T20:04:47.790Z,102418.25
2022-10-21T20:07:15.681Z,102422.44
2022-10-21T20:09:43.589Z,102421.88
2022-10-21T20:12:11.398Z,102424.97
2022-10-21T20:14:38.980Z,102428.69
2022-10-21T20:17:06.681Z,102427.63
2022-10-21T20:19:34.245Z,102421.97
2022-10-21T20:22:02.089Z,102427.22
2022-10-21T20:24:30.324Z,102425.69
2022-10-21T20:27:01.219Z,102425.50
2022-10-21T20:29:30.250Z,102427.41
2022-10-21T20:31:59.029Z,102428.34
2022-10-21T20:34:27.205Z,102424.97
2022-10-21T20:36:54.655Z,102426.53
2022-10-21T20:39:22.537Z,102431.03
2022-10-21T20:41:50.045Z,102433.53
2022-10-21T20:44:17.801Z,102418.22
2022-10-21T20:46:46.129Z,102426.22
2022-10-21T20:49:14.777Z,102427.66
2022-10-21T20:51:43.050Z,102422.31
2022-10-21T20:54:19.011Z,102421.38
2022-10-21T20:56:47.000Z,102425.00
2022-10-21T20:59:15.774Z,102426.50
2022-10-21T21:01:46.587Z,102425.56
2022-10-21T21:04:16.698Z,102421.28
2022-10-21T21:06:46.387Z,102416.72
2022-10-21T21:09:33.590Z,102424.16
2022-10-21T21:12:04.020Z,102421.78
2022-10-21T21:14:32.374Z,102420.94
2022-10-21T21:17:03.630Z,102417.31
2022-10-21T21:19:33.134Z,102417.22
2022-10-21T21:22:00.753Z,102420.94
2022-10-21T21:24:28.418Z,102425.50
2022-10-21T21:26:56.121Z,102425.00
2022-10-21T21:29:24.501Z,102435.59
2022-10-21T21:31:52.184Z,102432.03
2022-10-21T21:34:19.870Z,102433.13
2022-10-21T21:36:47.583Z,102432.78
2022-10-21T21:39:18.238Z,102435.25
2022-10-21T21:41:46.527Z,102428.59
2022-10-21T21:44:14.264Z,102429.13
2022-10-21T21:46:42.479Z,102437.88
2022-10-21T21:49:10.331Z,102431.88
2022-10-21T21:51:38.078Z,102426.81
2022-10-21T21:54:07.939Z,102432.13
2022-10-21T21:56:36.478Z,102434.06
2022-10-21T21:59:04.661Z,102430.81
2022-10-21T22:01:34.674Z,102428.72
2022-10-21T22:04:03.737Z,102427.22
2022-10-21T22:06:35.022Z,102434.25
2022-10-21T22:09:10.033Z,102432.63
2022-10-21T22:11:39.379Z,102437.88
2022-10-21T22:14:08.725Z,102429.00
2022-10-21T22:16:36.889Z,102431.25
2022-10-21T22:19:05.952Z,102435.72
2022-10-21T22:21:34.459Z,102430.16
2022-10-21T22:24:02.155Z,102424.59
2022-10-21T22:26:30.261Z,102418.72
2022-10-21T22:28:57.929Z,102422.03
2022-10-21T22:31:29.331Z,102421.19
2022-10-21T22:34:01.344Z,102421.38
2022-10-21T22:36:29.150Z,102421.22
2022-10-21T22:38:59.385Z,102421.38
2022-10-21T22:41:27.284Z,102421.59
2022-10-21T22:43:55.891Z,102417.31
2022-10-21T22:46:39.415Z,102419.78
2022-10-21T22:49:07.099Z,102414.00
2022-10-21T22:51:35.490Z,102420.28
2022-10-21T22:54:03.302Z,102417.28
2022-10-21T22:56:32.211Z,102418.97
2022-10-21T22:59:01.370Z,102413.03
2022-10-21T23:01:30.644Z,102419.38
2022-10-21T23:04:02.987Z,102414.38
2022-10-21T23:06:32.130Z,102415.94
2022-10-21T23:09:02.424Z,102418.91
2022-10-21T23:11:30.235Z,102418.47
2022-10-21T23:14:08.846Z,102411.97
2022-10-21T23:16:37.671Z,102409.53
2022-10-21T23:19:07.560Z,102412.66
2022-10-21T23:21:36.730Z,102414.38
2022-10-21T23:24:06.516Z,102415.41
2022-10-21T23:26:35.953Z,102418.94
2022-10-21T23:29:04.293Z,102422.06
2022-10-21T23:31:31.917Z,102409.91
2022-10-21T23:33:59.417Z,102408.78
2022-10-21T23:36:27.204Z,102417.13
2022-10-21T23:38:57.433Z,102410.09
2022-10-21T23:41:25.103Z,102409.31
2022-10-21T23:43:56.082Z,102415.03
2022-10-21T23:46:24.083Z,102406.47
2022-10-21T23:48:51.659Z,102411.59
2022-10-21T23:51:20.290Z,102416.16
2022-10-21T23:53:48.106Z,102413.50
2022-10-21T23:56:15.673Z,102407.72
2022-10-21T23:58:43.232Z,102403.81
